Jackson, WI

6:41 AM CDT on August 29, 2014 (GMT -0500)
Prairie Meadow | Change Station
CLOSE
Current Station
Personal Weather Station
Location: West Bend, WI
Elevation: 955 ft
Nearby Weather Stations

Elev 955 ft 43.39 °N, 88.15 °W | Updated 2 seconds ago

Partly Cloudy
Partly Cloudy
64.7 °F
Feels Like 64.7 °F
N
0.0
Wind Variable Wind from ENE
Gusts 0.0 mph

Today
High -- | Low -- °F
--% Chance of Precip.
Yesterday
High -- | Low -- °F
Precip. -- in
6:13 AM 7:32 PM
Waxing Crescent, 14% visible
Pressure 29.97 in
Visibility 5.0 miles
Clouds Clear
Dew Point 64 °F
Humidity 96%
Rainfall 0.00 in
Snow Depth Not available.
UV 0 out of 12
Pollen 1.30 out of 12
Air Quality Not available.
Flu Activity Not available.
METAR KETB 291115Z AUTO 17003KT 5SM BR CLR 18/17 A2997 RMK AO2

More Conditions Fewer Conditions

Pressure 29.97 in
Visibility 5.0 miles
Clouds Clear
Dew Point 64 °F
Humidity 96%
Rainfall 0.00 in
Snow Depth Not available.
UV 0 out of 12
Pollen 1.30 out of 12
Air Quality Not available.
Flu Activity Not available.
METAR KETB 291115Z AUTO 17003KT 5SM BR CLR 18/17 A2997 RMK AO2

More Conditions Fewer Conditions

Nowcast | as of 6:16 am CDT on August 29, 2014

Look for scattered showers and a few thunderstorms to develop and move through southern Wisconsin along a warm front this morning. The scattered showers and storms...generally along and southwest of a Wisconsin Dells to Monroe line...are moving northeast around 25 mph. Locations along a Princeton...Marshall to Clinton line will see the scattered showers and storms around 620 am...with the leading edge reaching Green Lake...Beaver Dam and Delavan between 7 am and 715 am. Expect brief heavy downpours of rain with the stronger cells that will reduce visibilities for drivers during the morning commute.

×

10-Day Weather Forecast

Almanac

Astronomy

Aug. 29, 2014 Rise Set
Actual Time 6:13 AM CDT 7:32 PM CDT
Civil Twilight 5:43 AM CDT 8:02 PM CDT
Nautical Twilight 5:08 AM CDT 8:37 PM CDT
Astronomical Twilight 4:30 AM CDT 9:15 PM CDT
Moon 10:10 AM CDT 9:22 PM CDT
Length of Visible Light 14h 18m
Length of Day
13h 19m
Tomorrow will be 2m 50s shorter.
Waxing Crescent, 14% of the Moon is Illuminated
Today
Waxing Crescent
Sep 2
First Quarter
Sep 8
Full
Sep 15
Last Quarter
Sep 24
New

Today's Extremes

State Highs State Lows

Community

WunderPhotos

Upload Photos

1,748,216 photos uploaded!

Nearby

Snow Depth

Station Depth Elevation
No new snow has been reported.

Earthquake Activity

City Distance Mag. Time & Date
No recent earthquake activity has been reported nearby.
Minimum magnitude displayed is 2.5.

Coastal Water Temperatures

Place Temperature
No Stations Reporting

Nearby Weather Stations